sensor_id;sensor_type;location;lat;lon;timestamp;P1;durP1;ratioP1;P2;durP2;ratioP2
58240;SDS011;45058;55.772;38.224;2023-06-22T00:02:14;70.28;;;36.47;;
58240;SDS011;45058;55.772;38.224;2023-06-22T00:04:40;68.32;;;39.47;;
58240;SDS011;45058;55.772;38.224;2023-06-22T00:07:06;75.38;;;38.72;;
58240;SDS011;45058;55.772;38.224;2023-06-22T00:09:32;71.38;;;36.22;;
58240;SDS011;45058;55.772;38.224;2023-06-22T00:11:58;69.03;;;36.95;;
58240;SDS011;45058;55.772;38.224;2023-06-22T00:14:24;70.20;;;36.00;;
58240;SDS011;45058;55.772;38.224;2023-06-22T00:16:50;61.70;;;33.72;;
58240;SDS011;45058;55.772;38.224;2023-06-22T00:19:21;62.35;;;36.08;;
58240;SDS011;45058;55.772;38.224;2023-06-22T00:21:47;67.90;;;36.25;;
58240;SDS011;45058;55.772;38.224;2023-06-22T00:24:19;85.30;;;38.13;;
58240;SDS011;45058;55.772;38.224;2023-06-22T00:26:45;65.65;;;35.47;;
58240;SDS011;45058;55.772;38.224;2023-06-22T00:29:13;58.15;;;32.80;;
58240;SDS011;45058;55.772;38.224;2023-06-22T00:31:39;57.67;;;32.40;;
58240;SDS011;45058;55.772;38.224;2023-06-22T00:34:05;59.53;;;32.22;;
58240;SDS011;45058;55.772;38.224;2023-06-22T00:36:33;62.70;;;33.80;;
58240;SDS011;45058;55.772;38.224;2023-06-22T00:38:59;57.17;;;32.05;;
58240;SDS011;45058;55.772;38.224;2023-06-22T00:41:25;53.40;;;32.03;;
58240;SDS011;45058;55.772;38.224;2023-06-22T00:43:54;58.35;;;32.03;;
58240;SDS011;45058;55.772;38.224;2023-06-22T00:46:21;60.63;;;31.20;;
58240;SDS011;45058;55.772;38.224;2023-06-22T00:48:48;50.97;;;31.77;;
58240;SDS011;45058;55.772;38.224;2023-06-22T00:51:15;62.38;;;32.78;;
58240;SDS011;45058;55.772;38.224;2023-06-22T00:53:41;60.25;;;33.67;;
58240;SDS011;45058;55.772;38.224;2023-06-22T00:56:09;60.00;;;33.25;;
58240;SDS011;45058;55.772;38.224;2023-06-22T00:58:38;61.50;;;34.92;;
58240;SDS011;45058;55.772;38.224;2023-06-22T01:01:07;60.85;;;34.78;;
58240;SDS011;45058;55.772;38.224;2023-06-22T01:03:34;58.45;;;34.50;;
58240;SDS011;45058;55.772;38.224;2023-06-22T01:06:08;55.53;;;32.65;;
58240;SDS011;45058;55.772;38.224;2023-06-22T01:08:42;53.08;;;31.38;;
58240;SDS011;45058;55.772;38.224;2023-06-22T01:11:28;52.05;;;32.65;;
58240;SDS011;45058;55.772;38.224;2023-06-22T01:16:41;51.85;;;30.15;;
58240;SDS011;45058;55.772;38.224;2023-06-22T01:19:18;52.15;;;28.70;;
58240;SDS011;45058;55.772;38.224;2023-06-22T01:21:48;46.92;;;28.15;;
58240;SDS011;45058;55.772;38.224;2023-06-22T01:24:17;48.13;;;25.67;;
58240;SDS011;45058;55.772;38.224;2023-06-22T01:29:31;54.30;;;33.83;;
58240;SDS011;45058;55.772;38.224;2023-06-22T01:31:57;49.83;;;30.30;;
58240;SDS011;45058;55.772;38.224;2023-06-22T01:34:28;49.22;;;30.05;;
58240;SDS011;45058;55.772;38.224;2023-06-22T01:36:55;51.58;;;29.10;;
58240;SDS011;45058;55.772;38.224;2023-06-22T01:39:21;53.15;;;31.55;;
58240;SDS011;45058;55.772;38.224;2023-06-22T01:41:50;51.10;;;30.58;;
58240;SDS011;45058;55.772;38.224;2023-06-22T01:44:17;51.40;;;31.05;;
58240;SDS011;45058;55.772;38.224;2023-06-22T01:46:43;48.80;;;31.08;;
58240;SDS011;45058;55.772;38.224;2023-06-22T01:49:09;44.08;;;28.20;;
58240;SDS011;45058;55.772;38.224;2023-06-22T01:51:36;44.67;;;28.08;;
58240;SDS011;45058;55.772;38.224;2023-06-22T01:54:02;42.28;;;27.13;;
58240;SDS011;45058;55.772;38.224;2023-06-22T01:56:28;47.88;;;28.75;;
58240;SDS011;45058;55.772;38.224;2023-06-22T01:59:05;38.75;;;25.70;;
58240;SDS011;45058;55.772;38.224;2023-06-22T02:01:46;39.13;;;25.70;;
58240;SDS011;45058;55.772;38.224;2023-06-22T02:04:19;41.10;;;25.92;;
58240;SDS011;45058;55.772;38.224;2023-06-22T02:06:49;41.80;;;24.92;;
58240;SDS011;45058;55.772;38.224;2023-06-22T02:09:17;44.20;;;23.83;;
58240;SDS011;45058;55.772;38.224;2023-06-22T02:11:45;44.25;;;24.75;;
58240;SDS011;45058;55.772;38.224;2023-06-22T02:14:14;36.28;;;22.17;;
58240;SDS011;45058;55.772;38.224;2023-06-22T02:16:40;35.10;;;23.15;;
58240;SDS011;45058;55.772;38.224;2023-06-22T02:19:08;38.72;;;23.38;;
58240;SDS011;45058;55.772;38.224;2023-06-22T02:21:34;40.58;;;23.52;;
58240;SDS011;45058;55.772;38.224;2023-06-22T02:24:00;40.60;;;22.92;;
58240;SDS011;45058;55.772;38.224;2023-06-22T02:26:30;36.50;;;20.48;;
58240;SDS011;45058;55.772;38.224;2023-06-22T02:28:56;35.97;;;20.90;;
58240;SDS011;45058;55.772;38.224;2023-06-22T02:31:22;33.75;;;20.60;;
58240;SDS011;45058;55.772;38.224;2023-06-22T02:33:48;43.25;;;22.23;;
58240;SDS011;45058;55.772;38.224;2023-06-22T02:36:18;35.45;;;19.17;;
58240;SDS011;45058;55.772;38.224;2023-06-22T02:38:49;33.25;;;19.17;;
58240;SDS011;45058;55.772;38.224;2023-06-22T02:41:16;33.90;;;18.25;;
58240;SDS011;45058;55.772;38.224;2023-06-22T02:43:45;37.13;;;18.58;;
58240;SDS011;45058;55.772;38.224;2023-06-22T02:46:12;40.70;;;17.75;;
58240;SDS011;45058;55.772;38.224;2023-06-22T02:48:57;34.60;;;17.52;;
58240;SDS011;45058;55.772;38.224;2023-06-22T02:51:23;27.58;;;16.13;;
58240;SDS011;45058;55.772;38.224;2023-06-22T02:53:49;27.23;;;15.80;;
58240;SDS011;45058;55.772;38.224;2023-06-22T02:56:24;23.40;;;14.68;;
58240;SDS011;45058;55.772;38.224;2023-06-22T02:58:53;26.13;;;15.23;;
58240;SDS011;45058;55.772;38.224;2023-06-22T03:01:19;22.17;;;14.20;;
58240;SDS011;45058;55.772;38.224;2023-06-22T03:03:49;34.38;;;16.13;;
58240;SDS011;45058;55.772;38.224;2023-06-22T03:06:16;28.98;;;15.45;;
58240;SDS011;45058;55.772;38.224;2023-06-22T03:08:51;30.65;;;15.48;;
58240;SDS011;45058;55.772;38.224;2023-06-22T03:11:17;24.92;;;15.45;;
58240;SDS011;45058;55.772;38.224;2023-06-22T03:13:43;22.42;;;14.10;;
58240;SDS011;45058;55.772;38.224;2023-06-22T03:16:12;19.60;;;14.20;;
58240;SDS011;45058;55.772;38.224;2023-06-22T03:18:38;20.55;;;14.32;;
58240;SDS011;45058;55.772;38.224;2023-06-22T03:21:04;23.42;;;13.77;;
58240;SDS011;45058;55.772;38.224;2023-06-22T03:23:30;20.60;;;13.48;;
58240;SDS011;45058;55.772;38.224;2023-06-22T03:25:57;24.30;;;13.70;;
58240;SDS011;45058;55.772;38.224;2023-06-22T03:28:23;23.27;;;13.52;;
58240;SDS011;45058;55.772;38.224;2023-06-22T03:30:48;24.58;;;12.88;;
58240;SDS011;45058;55.772;38.224;2023-06-22T03:33:16;19.35;;;11.80;;
58240;SDS011;45058;55.772;38.224;2023-06-22T03:35:42;18.20;;;11.55;;
58240;SDS011;45058;55.772;38.224;2023-06-22T03:38:10;28.33;;;10.82;;
58240;SDS011;45058;55.772;38.224;2023-06-22T03:40:36;17.08;;;9.75;;
58240;SDS011;45058;55.772;38.224;2023-06-22T03:43:02;22.50;;;10.27;;
58240;SDS011;45058;55.772;38.224;2023-06-22T03:45:29;21.08;;;11.05;;
58240;SDS011;45058;55.772;38.224;2023-06-22T03:47:55;19.88;;;10.82;;
58240;SDS011;45058;55.772;38.224;2023-06-22T03:50:21;19.30;;;9.40;;
58240;SDS011;45058;55.772;38.224;2023-06-22T03:52:48;23.35;;;8.77;;
58240;SDS011;45058;55.772;38.224;2023-06-22T03:55:14;22.25;;;7.95;;
58240;SDS011;45058;55.772;38.224;2023-06-22T03:57:40;18.13;;;8.32;;
58240;SDS011;45058;55.772;38.224;2023-06-22T04:00:06;18.80;;;9.13;;
58240;SDS011;45058;55.772;38.224;2023-06-22T04:02:38;20.58;;;9.35;;
58240;SDS011;45058;55.772;38.224;2023-06-22T04:05:04;26.65;;;8.68;;
58240;SDS011;45058;55.772;38.224;2023-06-22T04:07:31;21.35;;;8.65;;
58240;SDS011;45058;55.772;38.224;2023-06-22T04:09:57;17.80;;;8.55;;
58240;SDS011;45058;55.772;38.224;2023-06-22T04:12:23;24.35;;;8.85;;
58240;SDS011;45058;55.772;38.224;2023-06-22T04:14:49;22.58;;;8.43;;
58240;SDS011;45058;55.772;38.224;2023-06-22T04:17:15;23.13;;;8.27;;
58240;SDS011;45058;55.772;38.224;2023-06-22T04:19:43;20.92;;;9.55;;
58240;SDS011;45058;55.772;38.224;2023-06-22T04:22:09;25.83;;;8.80;;
58240;SDS011;45058;55.772;38.224;2023-06-22T04:24:35;18.33;;;9.13;;
58240;SDS011;45058;55.772;38.224;2023-06-22T04:27:25;26.10;;;8.77;;
58240;SDS011;45058;55.772;38.224;2023-06-22T04:30:06;22.08;;;8.85;;
58240;SDS011;45058;55.772;38.224;2023-06-22T04:32:33;21.58;;;9.18;;
58240;SDS011;45058;55.772;38.224;2023-06-22T04:35:02;22.48;;;8.57;;
58240;SDS011;45058;55.772;38.224;2023-06-22T04:37:30;28.48;;;8.82;;
58240;SDS011;45058;55.772;38.224;2023-06-22T04:39:57;16.05;;;7.90;;
58240;SDS011;45058;55.772;38.224;2023-06-22T04:42:22;18.02;;;7.47;;
58240;SDS011;45058;55.772;38.224;2023-06-22T04:44:48;14.85;;;6.93;;
58240;SDS011;45058;55.772;38.224;2023-06-22T04:47:14;18.38;;;7.00;;
58240;SDS011;45058;55.772;38.224;2023-06-22T04:49:40;15.57;;;6.35;;
58240;SDS011;45058;55.772;38.224;2023-06-22T04:52:09;15.45;;;6.07;;
58240;SDS011;45058;55.772;38.224;2023-06-22T04:54:37;14.43;;;6.32;;
58240;SDS011;45058;55.772;38.224;2023-06-22T04:57:05;23.90;;;7.20;;
58240;SDS011;45058;55.772;38.224;2023-06-22T04:59:35;15.48;;;6.07;;
58240;SDS011;45058;55.772;38.224;2023-06-22T05:02:04;18.20;;;6.80;;
58240;SDS011;45058;55.772;38.224;2023-06-22T05:04:31;19.98;;;7.43;;
58240;SDS011;45058;55.772;38.224;2023-06-22T05:06:58;16.83;;;6.43;;
58240;SDS011;45058;55.772;38.224;2023-06-22T05:09:25;14.60;;;6.63;;
58240;SDS011;45058;55.772;38.224;2023-06-22T05:11:52;14.43;;;6.90;;
58240;SDS011;45058;55.772;38.224;2023-06-22T05:14:18;19.65;;;6.28;;
58240;SDS011;45058;55.772;38.224;2023-06-22T05:16:45;18.05;;;6.35;;
58240;SDS011;45058;55.772;38.224;2023-06-22T05:19:11;18.63;;;5.97;;
58240;SDS011;45058;55.772;38.224;2023-06-22T05:21:38;16.77;;;6.72;;
58240;SDS011;45058;55.772;38.224;2023-06-22T05:24:04;12.52;;;5.80;;
58240;SDS011;45058;55.772;38.224;2023-06-22T05:26:31;14.93;;;5.90;;
58240;SDS011;45058;55.772;38.224;2023-06-22T05:28:59;16.05;;;6.63;;
58240;SDS011;45058;55.772;38.224;2023-06-22T05:31:27;9.43;;;5.35;;
58240;SDS011;45058;55.772;38.224;2023-06-22T05:33:54;15.48;;;5.65;;
58240;SDS011;45058;55.772;38.224;2023-06-22T05:36:21;18.88;;;6.63;;
58240;SDS011;45058;55.772;38.224;2023-06-22T05:38:51;21.80;;;7.00;;
58240;SDS011;45058;55.772;38.224;2023-06-22T05:41:17;15.38;;;7.00;;
58240;SDS011;45058;55.772;38.224;2023-06-22T05:43:44;17.30;;;6.95;;
58240;SDS011;45058;55.772;38.224;2023-06-22T05:46:10;22.60;;;7.40;;
58240;SDS011;45058;55.772;38.224;2023-06-22T05:48:39;18.27;;;6.60;;
58240;SDS011;45058;55.772;38.224;2023-06-22T05:51:05;13.38;;;6.70;;
58240;SDS011;45058;55.772;38.224;2023-06-22T05:53:31;14.30;;;5.80;;
58240;SDS011;45058;55.772;38.224;2023-06-22T05:55:57;17.17;;;6.47;;
58240;SDS011;45058;55.772;38.224;2023-06-22T05:58:23;21.30;;;6.38;;
58240;SDS011;45058;55.772;38.224;2023-06-22T06:00:49;15.40;;;6.90;;
58240;SDS011;45058;55.772;38.224;2023-06-22T06:03:15;21.10;;;7.65;;
58240;SDS011;45058;55.772;38.224;2023-06-22T06:05:42;24.05;;;7.13;;
58240;SDS011;45058;55.772;38.224;2023-06-22T06:08:21;14.00;;;6.93;;
58240;SDS011;45058;55.772;38.224;2023-06-22T06:10:47;19.85;;;7.03;;
58240;SDS011;45058;55.772;38.224;2023-06-22T06:13:26;19.90;;;7.28;;
58240;SDS011;45058;55.772;38.224;2023-06-22T06:16:04;16.92;;;7.43;;
58240;SDS011;45058;55.772;38.224;2023-06-22T06:18:30;14.65;;;7.28;;
58240;SDS011;45058;55.772;38.224;2023-06-22T06:20:56;20.02;;;8.25;;
58240;SDS011;45058;55.772;38.224;2023-06-22T06:23:53;13.02;;;7.70;;
58240;SDS011;45058;55.772;38.224;2023-06-22T06:29:15;18.55;;;8.98;;
58240;SDS011;45058;55.772;38.224;2023-06-22T06:31:42;15.30;;;8.52;;
58240;SDS011;45058;55.772;38.224;2023-06-22T06:34:08;22.52;;;8.65;;
58240;SDS011;45058;55.772;38.224;2023-06-22T06:36:34;14.13;;;7.80;;
58240;SDS011;45058;55.772;38.224;2023-06-22T06:39:00;16.58;;;7.93;;
58240;SDS011;45058;55.772;38.224;2023-06-22T06:41:26;17.83;;;8.52;;
58240;SDS011;45058;55.772;38.224;2023-06-22T06:43:52;16.60;;;8.15;;
58240;SDS011;45058;55.772;38.224;2023-06-22T06:46:19;17.20;;;7.95;;
58240;SDS011;45058;55.772;38.224;2023-06-22T06:48:45;17.00;;;8.45;;
58240;SDS011;45058;55.772;38.224;2023-06-22T06:51:11;16.63;;;8.13;;
58240;SDS011;45058;55.772;38.224;2023-06-22T06:53:49;16.83;;;8.38;;
58240;SDS011;45058;55.772;38.224;2023-06-22T06:56:16;15.00;;;7.60;;
58240;SDS011;45058;55.772;38.224;2023-06-22T06:58:42;13.93;;;8.45;;
58240;SDS011;45058;55.772;38.224;2023-06-22T07:01:11;15.65;;;8.52;;
58240;SDS011;45058;55.772;38.224;2023-06-22T07:03:38;24.77;;;8.65;;
58240;SDS011;45058;55.772;38.224;2023-06-22T15:32:31;11.27;;;4.37;;
58240;SDS011;45058;55.772;38.224;2023-06-22T15:34:57;5.93;;;4.07;;
58240;SDS011;45058;55.772;38.224;2023-06-22T15:37:23;13.18;;;3.80;;
58240;SDS011;45058;55.772;38.224;2023-06-22T15:39:49;9.00;;;3.80;;
58240;SDS011;45058;55.772;38.224;2023-06-22T15:42:16;9.57;;;4.32;;
58240;SDS011;45058;55.772;38.224;2023-06-22T15:44:42;21.30;;;4.22;;
58240;SDS011;45058;55.772;38.224;2023-06-22T15:47:32;14.27;;;4.60;;
58240;SDS011;45058;55.772;38.224;2023-06-22T15:50:11;53.53;;;6.10;;
58240;SDS011;45058;55.772;38.224;2023-06-22T15:52:39;8.18;;;3.95;;
58240;SDS011;45058;55.772;38.224;2023-06-22T15:55:18;7.88;;;3.80;;
58240;SDS011;45058;55.772;38.224;2023-06-22T15:57:46;9.85;;;3.95;;
58240;SDS011;45058;55.772;38.224;2023-06-22T16:00:16;12.82;;;3.72;;
58240;SDS011;45058;55.772;38.224;2023-06-22T16:02:56;6.88;;;3.42;;
58240;SDS011;45058;55.772;38.224;2023-06-22T16:05:22;15.45;;;4.15;;
58240;SDS011;45058;55.772;38.224;2023-06-22T16:07:49;11.90;;;4.63;;
58240;SDS011;45058;55.772;38.224;2023-06-22T16:10:15;11.30;;;4.57;;
58240;SDS011;45058;55.772;38.224;2023-06-22T16:12:43;11.07;;;3.45;;
58240;SDS011;45058;55.772;38.224;2023-06-22T16:15:12;10.23;;;4.07;;
58240;SDS011;45058;55.772;38.224;2023-06-22T16:17:38;13.55;;;4.40;;
58240;SDS011;45058;55.772;38.224;2023-06-22T16:20:16;9.60;;;3.63;;
58240;SDS011;45058;55.772;38.224;2023-06-22T16:22:43;11.50;;;3.70;;
58240;SDS011;45058;55.772;38.224;2023-06-22T16:25:11;6.43;;;3.60;;
58240;SDS011;45058;55.772;38.224;2023-06-22T16:27:38;9.70;;;4.07;;
58240;SDS011;45058;55.772;38.224;2023-06-22T16:30:05;7.90;;;3.78;;
58240;SDS011;45058;55.772;38.224;2023-06-22T16:32:33;7.85;;;3.55;;
58240;SDS011;45058;55.772;38.224;2023-06-22T16:34:59;14.10;;;4.03;;
58240;SDS011;45058;55.772;38.224;2023-06-22T16:37:26;15.00;;;4.50;;
58240;SDS011;45058;55.772;38.224;2023-06-22T16:39:52;8.50;;;4.22;;
58240;SDS011;45058;55.772;38.224;2023-06-22T16:42:18;21.42;;;4.43;;
58240;SDS011;45058;55.772;38.224;2023-06-22T16:44:45;11.38;;;4.10;;
58240;SDS011;45058;55.772;38.224;2023-06-22T16:47:11;10.38;;;3.80;;
58240;SDS011;45058;55.772;38.224;2023-06-22T16:49:37;8.32;;;3.33;;
58240;SDS011;45058;55.772;38.224;2023-06-22T16:52:04;7.53;;;3.67;;
58240;SDS011;45058;55.772;38.224;2023-06-22T16:54:30;15.65;;;3.92;;
58240;SDS011;45058;55.772;38.224;2023-06-22T16:57:09;13.32;;;3.75;;
58240;SDS011;45058;55.772;38.224;2023-06-22T16:59:36;5.82;;;3.15;;
58240;SDS011;45058;55.772;38.224;2023-06-22T17:02:02;7.03;;;3.30;;
58240;SDS011;45058;55.772;38.224;2023-06-22T17:04:29;13.85;;;3.42;;
58240;SDS011;45058;55.772;38.224;2023-06-22T17:07:18;6.80;;;3.97;;
58240;SDS011;45058;55.772;38.224;2023-06-22T17:09:56;9.48;;;3.47;;
58240;SDS011;45058;55.772;38.224;2023-06-22T17:12:23;13.38;;;3.67;;
58240;SDS011;45058;55.772;38.224;2023-06-22T17:14:51;15.20;;;3.70;;
58240;SDS011;45058;55.772;38.224;2023-06-22T17:17:39;16.05;;;3.72;;
58240;SDS011;45058;55.772;38.224;2023-06-22T17:20:06;10.88;;;3.35;;
58240;SDS011;45058;55.772;38.224;2023-06-22T17:22:33;8.23;;;3.53;;
58240;SDS011;45058;55.772;38.224;2023-06-22T17:25:06;5.72;;;2.90;;
58240;SDS011;45058;55.772;38.224;2023-06-22T17:27:35;9.07;;;3.30;;
58240;SDS011;45058;55.772;38.224;2023-06-22T17:30:08;6.00;;;2.78;;
58240;SDS011;45058;55.772;38.224;2023-06-22T17:32:35;9.85;;;3.40;;
58240;SDS011;45058;55.772;38.224;2023-06-22T17:35:02;12.43;;;3.88;;
58240;SDS011;45058;55.772;38.224;2023-06-22T17:37:32;6.53;;;2.95;;
58240;SDS011;45058;55.772;38.224;2023-06-22T17:39:59;9.07;;;3.40;;
58240;SDS011;45058;55.772;38.224;2023-06-22T17:42:25;7.35;;;3.30;;
58240;SDS011;45058;55.772;38.224;2023-06-22T17:44:59;8.85;;;3.08;;
58240;SDS011;45058;55.772;38.224;2023-06-22T17:47:26;13.68;;;3.58;;
58240;SDS011;45058;55.772;38.224;2023-06-22T17:49:52;6.70;;;3.63;;
58240;SDS011;45058;55.772;38.224;2023-06-22T17:52:32;10.40;;;3.80;;
58240;SDS011;45058;55.772;38.224;2023-06-22T17:55:00;7.85;;;3.95;;
58240;SDS011;45058;55.772;38.224;2023-06-22T17:57:35;10.95;;;3.80;;
58240;SDS011;45058;55.772;38.224;2023-06-22T18:00:07;8.25;;;3.70;;
58240;SDS011;45058;55.772;38.224;2023-06-22T18:02:42;12.65;;;3.90;;
58240;SDS011;45058;55.772;38.224;2023-06-22T18:05:09;11.50;;;3.70;;
58240;SDS011;45058;55.772;38.224;2023-06-22T18:07:36;7.93;;;3.47;;
58240;SDS011;45058;55.772;38.224;2023-06-22T18:10:03;14.85;;;4.00;;
58240;SDS011;45058;55.772;38.224;2023-06-22T18:12:32;11.45;;;3.80;;
58240;SDS011;45058;55.772;38.224;2023-06-22T18:14:59;9.52;;;3.55;;
58240;SDS011;45058;55.772;38.224;2023-06-22T18:17:26;9.15;;;4.00;;
58240;SDS011;45058;55.772;38.224;2023-06-22T18:19:56;8.13;;;3.95;;
58240;SDS011;45058;55.772;38.224;2023-06-22T18:22:25;5.45;;;3.03;;
58240;SDS011;45058;55.772;38.224;2023-06-22T18:24:51;15.20;;;3.72;;
58240;SDS011;45058;55.772;38.224;2023-06-22T18:27:18;11.60;;;3.65;;
58240;SDS011;45058;55.772;38.224;2023-06-22T18:29:47;12.52;;;3.92;;
58240;SDS011;45058;55.772;38.224;2023-06-22T18:32:15;7.63;;;3.58;;
58240;SDS011;45058;55.772;38.224;2023-06-22T18:34:53;11.90;;;4.53;;
58240;SDS011;45058;55.772;38.224;2023-06-22T18:37:20;7.45;;;3.50;;
58240;SDS011;45058;55.772;38.224;2023-06-22T18:39:49;8.27;;;3.60;;
58240;SDS011;45058;55.772;38.224;2023-06-22T18:42:32;17.42;;;6.40;;
58240;SDS011;45058;55.772;38.224;2023-06-22T18:45:28;8.35;;;5.45;;
58240;SDS011;45058;55.772;38.224;2023-06-22T18:48:02;10.70;;;5.07;;
58240;SDS011;45058;55.772;38.224;2023-06-22T18:50:45;10.65;;;4.60;;
58240;SDS011;45058;55.772;38.224;2023-06-22T18:55:50;11.45;;;5.05;;
58240;SDS011;45058;55.772;38.224;2023-06-22T18:58:29;11.65;;;4.65;;
58240;SDS011;45058;55.772;38.224;2023-06-22T19:01:14;10.57;;;5.55;;
58240;SDS011;45058;55.772;38.224;2023-06-22T19:03:45;11.50;;;5.07;;
58240;SDS011;45058;55.772;38.224;2023-06-22T19:07:00;20.67;;;5.88;;
58240;SDS011;45058;55.772;38.224;2023-06-22T19:09:16;12.30;;;4.68;;
58240;SDS011;45058;55.772;38.224;2023-06-22T19:11:45;13.90;;;6.43;;
58240;SDS011;45058;55.772;38.224;2023-06-22T19:14:21;9.93;;;4.90;;
58240;SDS011;45058;55.772;38.224;2023-06-22T19:17:00;11.68;;;5.68;;
58240;SDS011;45058;55.772;38.224;2023-06-22T19:19:26;10.52;;;5.75;;
58240;SDS011;45058;55.772;38.224;2023-06-22T19:21:58;8.18;;;5.15;;
58240;SDS011;45058;55.772;38.224;2023-06-22T19:24:32;11.82;;;5.55;;
58240;SDS011;45058;55.772;38.224;2023-06-22T19:27:19;13.27;;;5.18;;
58240;SDS011;45058;55.772;38.224;2023-06-22T19:29:45;18.50;;;4.80;;
58240;SDS011;45058;55.772;38.224;2023-06-22T19:32:12;22.23;;;5.53;;
58240;SDS011;45058;55.772;38.224;2023-06-22T19:34:45;11.75;;;5.20;;
58240;SDS011;45058;55.772;38.224;2023-06-22T19:37:14;18.30;;;5.00;;
58240;SDS011;45058;55.772;38.224;2023-06-22T19:39:40;13.07;;;4.35;;
58240;SDS011;45058;55.772;38.224;2023-06-22T19:42:06;14.07;;;4.85;;
58240;SDS011;45058;55.772;38.224;2023-06-22T19:44:33;7.63;;;5.47;;
58240;SDS011;45058;55.772;38.224;2023-06-22T19:46:59;12.15;;;5.10;;
58240;SDS011;45058;55.772;38.224;2023-06-22T19:49:26;13.02;;;5.35;;
58240;SDS011;45058;55.772;38.224;2023-06-22T19:51:52;7.07;;;4.80;;
58240;SDS011;45058;55.772;38.224;2023-06-22T19:54:18;11.32;;;4.45;;
58240;SDS011;45058;55.772;38.224;2023-06-22T19:56:44;10.30;;;4.63;;
58240;SDS011;45058;55.772;38.224;2023-06-22T19:59:11;10.13;;;4.45;;
58240;SDS011;45058;55.772;38.224;2023-06-22T20:01:38;10.55;;;4.68;;
58240;SDS011;45058;55.772;38.224;2023-06-22T20:04:05;11.77;;;4.82;;
58240;SDS011;45058;55.772;38.224;2023-06-22T20:06:31;9.35;;;4.00;;
58240;SDS011;45058;55.772;38.224;2023-06-22T20:08:58;9.80;;;4.45;;
58240;SDS011;45058;55.772;38.224;2023-06-22T20:11:28;11.65;;;5.00;;
58240;SDS011;45058;55.772;38.224;2023-06-22T20:13:58;12.13;;;3.97;;
58240;SDS011;45058;55.772;38.224;2023-06-22T20:16:25;8.50;;;3.95;;
58240;SDS011;45058;55.772;38.224;2023-06-22T20:19:11;5.55;;;3.67;;
58240;SDS011;45058;55.772;38.224;2023-06-22T20:21:41;7.05;;;3.50;;
58240;SDS011;45058;55.772;38.224;2023-06-22T20:24:09;14.38;;;4.07;;
58240;SDS011;45058;55.772;38.224;2023-06-22T20:26:37;9.02;;;4.18;;
58240;SDS011;45058;55.772;38.224;2023-06-22T20:32:08;10.07;;;4.38;;
58240;SDS011;45058;55.772;38.224;2023-06-22T20:37:04;7.93;;;3.95;;
58240;SDS011;45058;55.772;38.224;2023-06-22T20:39:32;14.05;;;4.05;;
58240;SDS011;45058;55.772;38.224;2023-06-22T20:41:59;9.00;;;4.85;;
58240;SDS011;45058;55.772;38.224;2023-06-22T20:44:25;10.32;;;5.30;;
58240;SDS011;45058;55.772;38.224;2023-06-22T20:46:51;11.68;;;4.82;;
58240;SDS011;45058;55.772;38.224;2023-06-22T20:49:17;17.88;;;4.88;;
58240;SDS011;45058;55.772;38.224;2023-06-22T20:51:43;11.30;;;5.10;;
58240;SDS011;45058;55.772;38.224;2023-06-22T20:54:10;7.30;;;4.43;;
58240;SDS011;45058;55.772;38.224;2023-06-22T20:56:36;12.82;;;4.80;;
58240;SDS011;45058;55.772;38.224;2023-06-22T20:59:02;9.57;;;4.25;;
58240;SDS011;45058;55.772;38.224;2023-06-22T21:01:28;8.93;;;5.15;;
58240;SDS011;45058;55.772;38.224;2023-06-22T21:04:10;12.90;;;5.00;;
58240;SDS011;45058;55.772;38.224;2023-06-22T21:06:48;15.02;;;4.63;;
58240;SDS011;45058;55.772;38.224;2023-06-22T21:09:14;10.80;;;5.07;;
58240;SDS011;45058;55.772;38.224;2023-06-22T21:11:41;7.70;;;4.38;;
58240;SDS011;45058;55.772;38.224;2023-06-22T21:14:07;6.78;;;4.55;;
58240;SDS011;45058;55.772;38.224;2023-06-22T21:16:33;9.32;;;4.18;;
58240;SDS011;45058;55.772;38.224;2023-06-22T21:18:59;7.03;;;4.57;;
58240;SDS011;45058;55.772;38.224;2023-06-22T21:21:25;6.03;;;4.00;;
58240;SDS011;45058;55.772;38.224;2023-06-22T21:24:03;9.38;;;4.97;;
58240;SDS011;45058;55.772;38.224;2023-06-22T21:26:30;7.90;;;4.43;;
58240;SDS011;45058;55.772;38.224;2023-06-22T21:28:56;9.98;;;4.53;;
58240;SDS011;45058;55.772;38.224;2023-06-22T21:31:22;9.60;;;3.95;;
58240;SDS011;45058;55.772;38.224;2023-06-22T21:33:48;8.40;;;5.18;;
58240;SDS011;45058;55.772;38.224;2023-06-22T21:36:14;8.25;;;4.35;;
58240;SDS011;45058;55.772;38.224;2023-06-22T21:38:40;10.30;;;4.97;;
58240;SDS011;45058;55.772;38.224;2023-06-22T21:41:18;6.88;;;3.90;;
58240;SDS011;45058;55.772;38.224;2023-06-22T21:43:44;4.88;;;3.90;;
58240;SDS011;45058;55.772;38.224;2023-06-22T21:46:10;12.10;;;4.80;;
58240;SDS011;45058;55.772;38.224;2023-06-22T21:48:36;11.57;;;4.80;;
58240;SDS011;45058;55.772;38.224;2023-06-22T21:51:02;13.73;;;5.13;;
58240;SDS011;45058;55.772;38.224;2023-06-22T21:53:28;6.55;;;4.50;;
58240;SDS011;45058;55.772;38.224;2023-06-22T21:55:54;8.38;;;3.53;;
58240;SDS011;45058;55.772;38.224;2023-06-22T21:58:20;8.35;;;4.55;;
58240;SDS011;45058;55.772;38.224;2023-06-22T22:00:50;9.70;;;4.38;;
58240;SDS011;45058;55.772;38.224;2023-06-22T22:03:21;8.38;;;3.80;;
58240;SDS011;45058;55.772;38.224;2023-06-22T22:05:47;7.15;;;4.10;;
58240;SDS011;45058;55.772;38.224;2023-06-22T22:08:13;7.13;;;3.55;;
58240;SDS011;45058;55.772;38.224;2023-06-22T22:10:42;6.15;;;3.88;;
58240;SDS011;45058;55.772;38.224;2023-06-22T22:13:08;5.85;;;4.03;;
58240;SDS011;45058;55.772;38.224;2023-06-22T22:15:34;7.38;;;4.18;;
58240;SDS011;45058;55.772;38.224;2023-06-22T22:18:00;9.70;;;4.20;;
58240;SDS011;45058;55.772;38.224;2023-06-22T22:20:30;6.80;;;4.20;;
58240;SDS011;45058;55.772;38.224;2023-06-22T22:23:00;9.25;;;4.20;;
58240;SDS011;45058;55.772;38.224;2023-06-22T22:25:26;6.22;;;3.53;;
58240;SDS011;45058;55.772;38.224;2023-06-22T22:27:52;5.38;;;3.30;;
58240;SDS011;45058;55.772;38.224;2023-06-22T22:30:18;7.75;;;3.17;;
58240;SDS011;45058;55.772;38.224;2023-06-22T22:32:45;4.30;;;3.15;;
58240;SDS011;45058;55.772;38.224;2023-06-22T22:35:11;6.47;;;3.90;;
58240;SDS011;45058;55.772;38.224;2023-06-22T22:37:41;5.68;;;3.00;;
58240;SDS011;45058;55.772;38.224;2023-06-22T22:40:08;4.57;;;3.08;;
58240;SDS011;45058;55.772;38.224;2023-06-22T22:42:36;7.13;;;3.60;;
58240;SDS011;45058;55.772;38.224;2023-06-22T22:45:03;6.57;;;3.47;;
58240;SDS011;45058;55.772;38.224;2023-06-22T22:47:38;6.65;;;3.20;;
58240;SDS011;45058;55.772;38.224;2023-06-22T22:50:04;4.30;;;3.35;;
58240;SDS011;45058;55.772;38.224;2023-06-22T22:52:32;4.55;;;2.83;;
58240;SDS011;45058;55.772;38.224;2023-06-22T22:55:04;7.10;;;2.83;;
58240;SDS011;45058;55.772;38.224;2023-06-22T22:57:33;5.32;;;3.05;;
58240;SDS011;45058;55.772;38.224;2023-06-22T22:59:59;5.53;;;3.42;;
58240;SDS011;45058;55.772;38.224;2023-06-22T23:02:25;4.93;;;3.35;;
58240;SDS011;45058;55.772;38.224;2023-06-22T23:04:57;10.30;;;3.55;;
58240;SDS011;45058;55.772;38.224;2023-06-22T23:07:26;6.22;;;3.10;;
58240;SDS011;45058;55.772;38.224;2023-06-22T23:09:54;5.38;;;3.30;;
58240;SDS011;45058;55.772;38.224;2023-06-22T23:12:21;6.65;;;3.22;;
58240;SDS011;45058;55.772;38.224;2023-06-22T23:14:47;3.53;;;2.72;;